createdAt,value
2023-03-24T00:02:11.995Z,4.00
2023-03-24T00:04:43.509Z,4.18
2023-03-24T00:07:16.124Z,3.55
2023-03-24T00:09:47.795Z,2.88
2023-03-24T00:12:19.476Z,3.58
2023-03-24T00:14:50.245Z,4.00
2023-03-24T00:17:26.150Z,5.10
2023-03-24T00:19:56.868Z,3.42
2023-03-24T00:22:29.287Z,3.20
2023-03-24T00:24:59.938Z,4.15
2023-03-24T00:27:31.261Z,3.33
2023-03-24T00:30:01.982Z,3.42
2023-03-24T00:32:34.199Z,4.22
2023-03-24T00:35:04.914Z,2.83
2023-03-24T00:37:38.242Z,3.45
2023-03-24T00:40:12.000Z,3.08
2023-03-24T00:42:46.903Z,4.15
2023-03-24T00:45:19.284Z,2.45
2023-03-24T00:47:54.924Z,2.33
2023-03-24T00:50:27.701Z,3.92
2023-03-24T00:53:02.873Z,4.45
2023-03-24T00:55:33.463Z,3.92
2023-03-24T00:58:04.033Z,3.97
2023-03-24T01:00:34.751Z,3.65
2023-03-24T01:03:07.187Z,3.83
2023-03-24T01:05:38.232Z,3.15
2023-03-24T01:08:09.209Z,3.20
2023-03-24T01:10:53.858Z,4.07
2023-03-24T01:13:25.224Z,3.22
2023-03-24T01:15:56.746Z,2.72
2023-03-24T01:18:29.604Z,5.38
2023-03-24T01:21:03.195Z,2.58
2023-03-24T01:23:33.747Z,3.40
2023-03-24T01:26:08.416Z,3.83
2023-03-24T01:28:41.748Z,3.38
2023-03-24T01:31:13.193Z,2.90
2023-03-24T01:33:45.644Z,3.33
2023-03-24T01:36:16.334Z,3.03
2023-03-24T01:38:46.939Z,3.42
2023-03-24T01:41:17.722Z,3.70
2023-03-24T01:43:48.861Z,2.85
2023-03-24T01:46:21.497Z,3.83
2023-03-24T01:48:57.169Z,3.95
2023-03-24T01:51:31.270Z,4.18
2023-03-24T01:54:04.950Z,3.25
2023-03-24T01:56:39.452Z,3.17
2023-03-24T01:59:14.016Z,3.47
2023-03-24T02:01:44.800Z,3.35
2023-03-24T02:04:17.844Z,3.53
2023-03-24T02:06:49.844Z,3.35
2023-03-24T02:09:20.565Z,4.45
2023-03-24T02:11:51.392Z,3.60
2023-03-24T02:14:22.058Z,3.53
2023-03-24T02:17:18.552Z,5.03
2023-03-24T02:20:17.382Z,2.70
2023-03-24T02:23:31.225Z,3.85
2023-03-24T02:26:37.655Z,2.85
2023-03-24T02:29:40.384Z,3.65
2023-03-24T02:32:34.710Z,3.38
2023-03-24T02:35:44.391Z,4.05
2023-03-24T02:38:57.141Z,3.28
2023-03-24T02:41:33.742Z,3.55
2023-03-24T02:44:11.254Z,2.83
2023-03-24T02:46:48.749Z,3.83
2023-03-24T02:49:29.081Z,3.25
2023-03-24T02:52:06.696Z,3.25
2023-03-24T02:54:47.367Z,4.18
2023-03-24T02:57:25.886Z,4.30
2023-03-24T03:00:00.933Z,2.92
2023-03-24T03:02:35.503Z,2.75
2023-03-24T03:05:09.649Z,2.58
2023-03-24T03:07:42.677Z,2.63
2023-03-24T03:10:21.107Z,2.70
2023-03-24T03:12:56.825Z,2.72
2023-03-24T03:15:31.455Z,2.33
2023-03-24T03:18:11.667Z,2.45
2023-03-24T03:20:51.694Z,2.53
2023-03-24T03:26:05.050Z,2.70
2023-03-24T03:28:44.046Z,2.97
2023-03-24T03:31:22.838Z,2.42
2023-03-24T03:34:01.260Z,2.53
2023-03-24T03:36:35.359Z,2.25
2023-03-24T03:39:14.755Z,2.75
2023-03-24T03:41:46.366Z,2.20
2023-03-24T03:44:19.266Z,2.67
2023-03-24T03:46:49.970Z,2.67
2023-03-24T03:49:20.678Z,2.10
2023-03-24T03:51:51.495Z,2.28
2023-03-24T03:54:23.409Z,2.85
2023-03-24T03:56:54.875Z,2.80
2023-03-24T03:59:34.621Z,1.95
2023-03-24T04:02:19.658Z,2.83
2023-03-24T04:05:15.000Z,2.60
2023-03-24T04:08:09.521Z,3.60
2023-03-24T04:10:52.442Z,2.72
2023-03-24T04:13:34.380Z,3.30
2023-03-24T04:16:13.699Z,2.80
2023-03-24T04:19:14.160Z,2.50
2023-03-24T04:21:55.963Z,3.70
2023-03-24T04:24:38.161Z,4.03
2023-03-24T04:27:17.045Z,3.15
2023-03-24T04:29:59.090Z,3.22
2023-03-24T04:32:38.096Z,3.28
2023-03-24T04:35:13.896Z,2.33
2023-03-24T04:37:45.563Z,2.95
2023-03-24T04:40:18.416Z,3.40
2023-03-24T04:42:53.285Z,3.22
2023-03-24T04:45:26.737Z,3.03
2023-03-24T04:48:01.688Z,3.10
2023-03-24T04:50:35.202Z,2.05
2023-03-24T04:53:05.710Z,2.45
2023-03-24T04:55:55.006Z,1.95
2023-03-24T04:58:25.958Z,2.60
2023-03-24T05:00:57.404Z,2.50
2023-03-24T05:03:29.394Z,1.95
2023-03-24T05:06:00.034Z,1.90
2023-03-24T05:08:30.525Z,2.15
2023-03-24T05:11:00.940Z,2.25
2023-03-24T05:13:31.470Z,2.38
2023-03-24T05:16:01.914Z,2.20
2023-03-24T05:18:33.863Z,2.33
2023-03-24T05:21:04.300Z,1.73
2023-03-24T05:23:34.713Z,2.13
2023-03-24T05:26:08.757Z,1.85
2023-03-24T05:28:39.287Z,1.65
2023-03-24T05:31:09.975Z,1.98
2023-03-24T05:33:42.197Z,2.13
2023-03-24T05:36:14.091Z,2.00
2023-03-24T05:38:44.659Z,1.83
2023-03-24T05:41:15.169Z,1.70
2023-03-24T05:43:45.584Z,2.05
2023-03-24T05:46:16.253Z,1.70
2023-03-24T05:48:52.213Z,1.50
2023-03-24T05:51:22.685Z,2.08
2023-03-24T05:53:53.397Z,1.33
2023-03-24T05:56:23.966Z,2.17
2023-03-24T05:58:54.456Z,1.95
2023-03-24T06:01:26.180Z,1.65
2023-03-24T06:03:58.590Z,1.55
2023-03-24T06:06:29.447Z,2.30
2023-03-24T06:09:03.176Z,2.10
2023-03-24T06:11:33.899Z,2.75
2023-03-24T06:14:04.399Z,1.50
2023-03-24T06:16:35.412Z,4.53
2023-03-24T06:19:07.752Z,3.00
2023-03-24T06:21:38.267Z,3.35
2023-03-24T06:24:09.216Z,2.70
2023-03-24T06:26:42.947Z,1.60
2023-03-24T06:29:13.406Z,1.90
2023-03-24T06:31:46.126Z,2.97
2023-03-24T06:34:18.212Z,1.63
2023-03-24T06:36:50.293Z,2.53
2023-03-24T06:39:20.970Z,2.00
2023-03-24T06:41:51.462Z,2.00
2023-03-24T06:44:22.115Z,1.63
2023-03-24T06:46:52.634Z,2.00
2023-03-24T06:49:24.993Z,2.33
2023-03-24T06:51:55.596Z,2.20
2023-03-24T06:54:26.117Z,2.00
2023-03-24T06:56:57.341Z,1.70
2023-03-24T06:59:29.161Z,2.03
2023-03-24T07:01:59.637Z,1.55
2023-03-24T07:04:37.310Z,1.50
2023-03-24T07:07:30.921Z,1.98
2023-03-24T07:09:58.920Z,1.77
2023-03-24T07:12:31.618Z,1.58
2023-03-24T07:15:04.854Z,1.90
2023-03-24T07:17:35.476Z,1.67
2023-03-24T07:20:09.174Z,1.60
2023-03-24T07:22:39.639Z,2.05
2023-03-24T07:25:10.697Z,2.10
2023-03-24T07:27:42.766Z,1.85
2023-03-24T07:30:13.826Z,1.85
2023-03-24T07:32:44.669Z,2.05
2023-03-24T07:35:17.248Z,2.10
2023-03-24T07:37:51.192Z,1.83
2023-03-24T07:40:22.770Z,3.25
2023-03-24T07:42:53.315Z,2.10
2023-03-24T07:45:25.550Z,2.15
2023-03-24T07:47:57.930Z,1.98
2023-03-24T07:50:30.464Z,2.08
2023-03-24T07:53:01.012Z,2.15
2023-03-24T07:55:31.356Z,2.20
2023-03-24T07:58:01.822Z,2.45
2023-03-24T08:00:35.278Z,2.20
2023-03-24T08:03:06.007Z,2.38
2023-03-24T08:05:40.636Z,2.30
2023-03-24T08:08:11.521Z,2.00
2023-03-24T08:10:48.296Z,1.98
2023-03-24T08:13:19.014Z,2.10
2023-03-24T08:15:52.433Z,2.22
2023-03-24T08:18:23.399Z,2.35
2023-03-24T08:20:59.580Z,2.38
2023-03-24T08:23:30.318Z,2.55
2023-03-24T08:26:04.322Z,2.00
2023-03-24T08:28:42.242Z,2.15
2023-03-24T08:31:13.690Z,1.80
2023-03-24T08:33:44.207Z,2.75
2023-03-24T08:36:18.435Z,2.20
2023-03-24T08:39:02.061Z,1.73
2023-03-24T08:41:35.720Z,1.77
2023-03-24T08:44:11.105Z,1.70
2023-03-24T08:46:45.104Z,2.30
2023-03-24T08:49:15.579Z,2.10
2023-03-24T08:51:48.007Z,2.42
2023-03-24T08:54:21.098Z,1.60
2023-03-24T08:56:51.594Z,1.63
2023-03-24T08:59:23.270Z,1.80
2023-03-24T09:01:53.940Z,1.85
2023-03-24T09:04:24.569Z,1.73
2023-03-24T09:07:02.936Z,1.70
2023-03-24T09:09:34.686Z,2.10
2023-03-24T09:12:05.257Z,1.73
2023-03-24T09:14:40.864Z,1.95
2023-03-24T09:17:11.389Z,2.28
2023-03-24T09:19:44.566Z,1.52
2023-03-24T09:22:18.802Z,2.10
2023-03-24T09:24:50.096Z,1.90
2023-03-24T09:27:21.049Z,2.40
2023-03-24T09:29:54.656Z,2.20
2023-03-24T09:32:27.912Z,2.10
2023-03-24T09:34:58.485Z,2.30
2023-03-24T09:37:32.355Z,2.25
2023-03-24T09:40:05.786Z,2.00
2023-03-24T09:42:40.064Z,2.47
2023-03-24T09:45:17.812Z,2.70
2023-03-24T09:47:52.710Z,2.80
2023-03-24T09:51:02.827Z,2.67
2023-03-24T09:56:34.700Z,1.92
2023-03-24T09:59:08.840Z,2.30
2023-03-24T10:01:42.418Z,2.63
2023-03-24T10:04:19.771Z,2.58
2023-03-24T10:06:54.255Z,1.90
2023-03-24T10:09:28.163Z,2.10
2023-03-24T10:12:20.261Z,2.05
2023-03-24T10:15:01.092Z,2.30
2023-03-24T10:17:44.665Z,2.70
2023-03-24T10:20:31.695Z,2.63
2023-03-24T10:23:11.870Z,2.78
2023-03-24T10:25:52.821Z,2.13
2023-03-24T10:28:30.734Z,2.70
2023-03-24T10:31:06.831Z,2.90
2023-03-24T10:33:53.229Z,2.22
2023-03-24T10:36:28.655Z,2.38
2023-03-24T10:39:03.909Z,2.40
2023-03-24T10:41:47.661Z,2.72
2023-03-24T10:44:22.697Z,2.25
2023-03-24T10:46:57.001Z,2.63
2023-03-24T10:49:27.662Z,2.30
2023-03-24T10:52:08.687Z,3.20
2023-03-24T10:54:39.509Z,3.10
2023-03-24T10:57:20.078Z,3.80
2023-03-24T11:00:07.862Z,3.30
2023-03-24T11:03:13.215Z,3.90
2023-03-24T11:05:47.525Z,3.63
2023-03-24T11:08:37.758Z,4.13
2023-03-24T11:14:30.574Z,4.43
2023-03-24T11:17:18.790Z,7.50
2023-03-24T11:20:01.836Z,11.18
2023-03-24T11:22:35.477Z,17.52
2023-03-24T11:25:06.964Z,14.88
2023-03-24T11:27:45.680Z,10.25
2023-03-24T11:30:17.908Z,10.65
2023-03-24T11:32:51.148Z,5.25
2023-03-24T11:35:32.151Z,5.00
2023-03-24T11:38:10.272Z,6.18
2023-03-24T11:40:41.353Z,18.13
2023-03-24T11:43:23.201Z,22.50
2023-03-24T11:46:01.559Z,13.57
2023-03-24T11:48:42.206Z,13.35
2023-03-24T11:51:47.033Z,12.07
2023-03-24T11:55:23.581Z,9.85
2023-03-24T11:58:53.209Z,11.43
2023-03-24T12:01:52.285Z,7.93
2023-03-24T12:04:54.117Z,6.95
2023-03-24T12:11:54.190Z,4.40
2023-03-24T12:19:23.771Z,2.15
2023-03-24T12:22:22.575Z,2.80
2023-03-24T12:29:40.976Z,7.57
2023-03-24T12:32:39.156Z,3.50
2023-03-24T12:35:31.855Z,2.80
2023-03-24T12:38:24.429Z,2.33
2023-03-24T12:41:25.130Z,2.80
2023-03-24T12:49:03.632Z,24.20
2023-03-24T12:55:04.138Z,5.25
2023-03-24T12:57:45.212Z,4.57
2023-03-24T13:07:31.440Z,9.02
2023-03-24T13:10:09.556Z,13.98
2023-03-24T13:12:45.302Z,11.98
2023-03-24T13:15:25.429Z,13.02
2023-03-24T13:20:36.445Z,9.20
2023-03-24T13:23:33.892Z,5.20
2023-03-24T13:26:18.941Z,10.85
2023-03-24T13:29:03.970Z,7.70
2023-03-24T13:31:40.106Z,13.57
2023-03-24T13:34:25.330Z,19.00
2023-03-24T13:37:02.538Z,20.00
2023-03-24T13:39:37.343Z,15.73
2023-03-24T13:42:38.226Z,12.82
2023-03-24T13:45:24.026Z,3.55
2023-03-24T13:48:12.010Z,3.63
2023-03-24T13:50:55.782Z,3.92
2023-03-24T13:53:38.365Z,3.30
2023-03-24T13:56:13.811Z,2.70
2023-03-24T13:59:11.714Z,3.15
2023-03-24T14:02:37.531Z,3.28
2023-03-24T14:06:02.033Z,3.47
2023-03-24T14:09:18.499Z,3.55
2023-03-24T14:12:32.997Z,2.55
2023-03-24T14:15:21.271Z,4.55
2023-03-24T14:17:56.473Z,4.63
2023-03-24T14:20:45.526Z,4.50
2023-03-24T14:23:30.913Z,3.75
2023-03-24T14:26:16.318Z,2.80
2023-03-24T14:28:51.293Z,2.33
2023-03-24T14:31:29.901Z,2.30
2023-03-24T14:34:11.786Z,2.20
2023-03-24T14:36:44.397Z,2.97
2023-03-24T14:39:29.516Z,2.20
2023-03-24T14:42:06.136Z,2.72
2023-03-24T14:44:58.352Z,2.65
2023-03-24T14:47:33.207Z,2.53
2023-03-24T14:50:13.355Z,2.40
2023-03-24T14:55:19.878Z,2.70
2023-03-24T14:57:56.413Z,2.90
2023-03-24T15:00:33.996Z,2.60
2023-03-24T15:03:18.700Z,2.80
2023-03-24T15:05:58.180Z,2.85
2023-03-24T15:08:30.500Z,2.83
2023-03-24T15:11:05.304Z,2.75
2023-03-24T15:13:39.709Z,2.85
2023-03-24T15:16:20.126Z,2.75
2023-03-24T15:19:01.434Z,2.70
2023-03-24T15:21:38.768Z,2.70
2023-03-24T15:24:33.907Z,2.70
2023-03-24T15:27:27.577Z,2.25
2023-03-24T15:30:04.041Z,2.45
2023-03-24T15:32:43.327Z,2.70
2023-03-24T15:35:19.289Z,2.97
2023-03-24T15:37:55.220Z,2.60
2023-03-24T15:40:36.839Z,3.13
2023-03-24T15:43:10.035Z,3.25
2023-03-24T15:46:08.815Z,2.75
2023-03-24T15:48:43.279Z,2.65
2023-03-24T15:51:16.088Z,2.80
2023-03-24T15:53:50.069Z,2.55
2023-03-24T15:56:27.144Z,2.50
2023-03-24T15:58:59.260Z,3.00
2023-03-24T16:01:36.763Z,2.65
2023-03-24T16:04:11.574Z,3.47
2023-03-24T16:06:53.568Z,2.88
2023-03-24T16:09:28.689Z,2.72
2023-03-24T16:11:59.217Z,3.53
2023-03-24T16:14:31.218Z,2.78
2023-03-24T16:17:04.640Z,2.63
2023-03-24T16:19:35.304Z,2.50
2023-03-24T16:22:13.519Z,2.90
2023-03-24T16:24:44.018Z,3.47
2023-03-24T16:27:18.042Z,4.10
2023-03-24T16:29:56.200Z,4.35
2023-03-24T16:32:26.891Z,4.47
2023-03-24T16:35:00.202Z,6.22
2023-03-24T16:37:39.970Z,5.43
2023-03-24T16:40:27.190Z,4.03
2023-03-24T16:43:00.233Z,4.45
2023-03-24T16:45:30.896Z,2.90
2023-03-24T16:48:01.847Z,3.10
2023-03-24T16:50:36.451Z,2.53
2023-03-24T16:53:09.647Z,3.30
2023-03-24T16:55:42.239Z,3.60
2023-03-24T16:58:14.889Z,3.50
2023-03-24T17:00:46.941Z,4.28
2023-03-24T17:03:20.317Z,2.88
2023-03-24T17:05:52.105Z,2.60
2023-03-24T17:08:24.376Z,3.03
2023-03-24T17:11:02.476Z,2.83
2023-03-24T17:13:32.870Z,6.18
2023-03-24T17:16:03.490Z,23.40
2023-03-24T17:18:34.089Z,16.23
2023-03-24T17:21:04.679Z,16.77
2023-03-24T17:23:38.043Z,12.45
2023-03-24T17:26:11.551Z,25.00
2023-03-24T17:28:45.203Z,29.98
2023-03-24T17:31:17.589Z,11.93
2023-03-24T17:33:48.489Z,5.78
2023-03-24T17:36:25.319Z,27.75
2023-03-24T17:39:00.285Z,16.15
2023-03-24T17:41:30.743Z,10.60
2023-03-24T17:44:07.492Z,11.73
2023-03-24T17:46:38.243Z,17.00
2023-03-24T17:49:11.957Z,14.73
2023-03-24T17:51:42.413Z,9.48
2023-03-24T17:54:14.582Z,5.03
2023-03-24T17:56:49.357Z,3.78
2023-03-24T17:59:20.081Z,3.28
2023-03-24T18:01:56.461Z,3.38
2023-03-24T18:04:29.946Z,3.30
2023-03-24T18:07:00.912Z,3.30
2023-03-24T18:09:42.774Z,3.05
2023-03-24T18:12:13.972Z,3.33
2023-03-24T18:14:44.510Z,3.28
2023-03-24T18:17:18.397Z,3.30
2023-03-24T18:19:48.919Z,3.15
2023-03-24T18:22:19.583Z,3.03
2023-03-24T18:24:58.193Z,3.53
2023-03-24T18:27:28.915Z,3.20
2023-03-24T18:29:59.429Z,2.85
2023-03-24T18:32:30.000Z,2.95
2023-03-24T18:35:03.332Z,2.63
2023-03-24T18:37:38.244Z,2.92
2023-03-24T18:40:17.436Z,2.90
2023-03-24T18:42:47.949Z,4.95
2023-03-24T18:45:19.720Z,2.70
2023-03-24T18:47:50.864Z,2.83
2023-03-24T18:50:24.229Z,2.92
2023-03-24T18:52:54.718Z,3.00
2023-03-24T18:55:31.108Z,3.17
2023-03-24T18:58:01.701Z,2.78
2023-03-24T19:00:35.049Z,3.15
2023-03-24T19:03:11.953Z,3.10
2023-03-24T19:05:42.553Z,2.95
2023-03-24T19:15:59.140Z,2.55
2023-03-24T19:18:32.550Z,2.90
2023-03-24T19:21:07.911Z,3.03
2023-03-24T19:23:38.897Z,3.38
2023-03-24T19:26:09.700Z,2.90
2023-03-24T19:28:40.315Z,3.05
2023-03-24T19:31:16.232Z,3.00
2023-03-24T19:33:47.658Z,2.90
2023-03-24T19:36:19.056Z,3.10
2023-03-24T19:38:51.374Z,2.97
2023-03-24T19:41:33.211Z,2.85
2023-03-24T19:48:20.010Z,3.90
2023-03-24T19:50:53.934Z,5.50
2023-03-24T19:53:30.866Z,4.57
2023-03-24T19:56:02.956Z,4.50
2023-03-24T19:58:37.589Z,5.63
2023-03-24T20:01:08.216Z,8.15
2023-03-24T20:03:40.874Z,5.85
2023-03-24T20:06:12.198Z,4.72
2023-03-24T20:08:42.642Z,6.57
2023-03-24T20:11:13.861Z,3.72
2023-03-24T20:13:44.345Z,3.80
2023-03-24T20:16:14.845Z,3.97
2023-03-24T20:18:46.950Z,4.00
2023-03-24T20:21:21.314Z,3.90
2023-03-24T20:23:55.300Z,3.83
2023-03-24T20:26:25.927Z,3.72
2023-03-24T20:28:56.310Z,3.70
2023-03-24T20:31:27.063Z,4.03
2023-03-24T20:33:59.183Z,4.35
2023-03-24T20:36:29.714Z,4.38
2023-03-24T20:39:02.805Z,11.82
2023-03-24T20:41:33.301Z,7.03
2023-03-24T20:44:03.697Z,5.40
2023-03-24T20:46:34.493Z,4.65
2023-03-24T20:49:06.644Z,4.13
2023-03-24T20:51:37.574Z,4.05
2023-03-24T20:54:08.791Z,3.88
2023-03-24T20:56:39.300Z,3.88
2023-03-24T20:59:09.833Z,3.20
2023-03-24T21:01:42.690Z,3.47
2023-03-24T21:04:15.045Z,3.55
2023-03-24T21:06:45.766Z,4.22
2023-03-24T21:09:16.464Z,5.10
2023-03-24T21:11:46.864Z,4.60
2023-03-24T21:14:17.310Z,3.90
2023-03-24T21:16:48.246Z,3.65
2023-03-24T21:19:20.219Z,3.67
2023-03-24T21:21:50.524Z,3.67
2023-03-24T21:24:21.302Z,4.07
2023-03-24T21:26:51.759Z,4.28
2023-03-24T21:29:23.347Z,3.95
2023-03-24T21:31:53.841Z,4.07
2023-03-24T21:34:25.745Z,4.20
2023-03-24T21:36:56.508Z,3.80
2023-03-24T21:39:27.208Z,3.67
2023-03-24T21:41:57.628Z,3.58
2023-03-24T21:44:28.018Z,3.72
2023-03-24T21:46:58.353Z,3.33
2023-03-24T21:49:30.406Z,3.72
2023-03-24T21:52:00.839Z,3.85
2023-03-24T21:54:31.557Z,4.55
2023-03-24T21:57:02.019Z,4.82
2023-03-24T21:59:33.175Z,4.28
2023-03-24T22:02:03.534Z,5.10
2023-03-24T22:04:38.942Z,4.75
2023-03-24T22:07:09.493Z,4.47
2023-03-24T22:09:39.876Z,7.70
2023-03-24T22:12:10.597Z,6.47
2023-03-24T22:14:41.537Z,5.85
2023-03-24T22:17:11.975Z,7.53
2023-03-24T22:19:43.940Z,5.90
2023-03-24T22:22:14.322Z,16.83
2023-03-24T22:24:44.731Z,40.33
2023-03-24T22:27:15.126Z,20.15
2023-03-24T22:29:45.518Z,14.90
2023-03-24T22:32:15.906Z,8.85
2023-03-24T22:34:47.940Z,8.50
2023-03-24T22:37:18.334Z,9.60
2023-03-24T22:39:48.734Z,8.02
2023-03-24T22:42:19.087Z,6.93
2023-03-24T22:44:49.432Z,7.60
2023-03-24T22:47:19.817Z,11.07
2023-03-24T22:49:51.841Z,9.95
2023-03-24T22:52:22.383Z,10.63
2023-03-24T22:54:52.770Z,13.32
2023-03-24T22:57:23.263Z,11.75
2023-03-24T22:59:53.760Z,9.73
2023-03-24T23:02:25.329Z,9.48
2023-03-24T23:04:57.417Z,8.05
2023-03-24T23:07:28.918Z,9.68
2023-03-24T23:10:00.952Z,8.65
2023-03-24T23:12:31.359Z,7.05
2023-03-24T23:15:01.940Z,8.90
2023-03-24T23:17:32.247Z,9.95
2023-03-24T23:20:06.249Z,9.35
2023-03-24T23:22:39.109Z,4.65
2023-03-24T23:25:10.526Z,2.83
2023-03-24T23:27:41.181Z,3.65
2023-03-24T23:30:13.718Z,3.20
2023-03-24T23:32:45.036Z,3.42
2023-03-24T23:35:17.792Z,3.67
2023-03-24T23:37:48.205Z,2.92
2023-03-24T23:40:19.970Z,3.50
2023-03-24T23:42:51.715Z,4.20
2023-03-24T23:45:23.539Z,4.35
2023-03-24T23:47:54.402Z,4.72
2023-03-24T23:50:27.008Z,4.18
2023-03-24T23:52:57.528Z,3.92
2023-03-24T23:55:28.867Z,2.80
2023-03-24T23:57:59.319Z,2.65
